Aviation Digital Data Service (ADDS)

Output produced by METARs form (1445 UTC 15 November 2018)
found at http://aviationweather.gov/metar/data/
 
METAR text: UGTB 151430Z 24002KT 6000 -RA BKN003 OVC017 06/05 Q1023 R31L/290052 NOSIG
Conditions at: UGTB (TBILISI/NOVO-AL , GE) observed 1430 UTC 15 November 2018
Temperature: 6.0°C (43°F)
Dewpoint: 5.0°C (41°F) [RH = 93%]
Pressure (altimeter): 30.21 inches Hg (1023.0 mb)
Winds: from the WSW (240 degrees) at 2 MPH (2 knots; 1.0 m/s)
Visibility: 4 miles ( 6 km)
Ceiling: 300 feet AGL
Clouds: broken clouds at 300 feet AGL
overcast cloud deck at 1700 feet AGL
Weather: -RA  (light rain)

METAR text: UGTB 151400Z 25002KT 4100 -RA BR SCT002 BKN004 OVC008 06/05 Q1023 R31L/290052 NOSIG
Conditions at: UGTB (TBILISI/NOVO-AL , GE) observed 1400 UTC 15 November 2018
Temperature: 6.0°C (43°F)
Dewpoint: 5.0°C (41°F) [RH = 93%]
Pressure (altimeter): 30.21 inches Hg (1023.0 mb)
Winds: from the WSW (250 degrees) at 2 MPH (2 knots; 1.0 m/s)
Visibility: 2.55 miles (4.10 km)
Ceiling: 400 feet AGL
Clouds: scattered clouds at 200 feet AGL
broken clouds at 400 feet AGL
overcast cloud deck at 800 feet AGL
Weather: -RA BR  (light rain, mist)

Forecast for: UGTB (TBILISI/NOVO-AL , GE)
Text: TAF UGTB 151100Z 1512/1612 VRB02KT 2500 DZ BR BKN003 OVC010 TX08/1612Z TN05/1603Z
Forecast period: 1200 UTC 15 November 2018 to 1200 UTC 16 November 2018
Forecast type: FROM: standard forecast or significant change
Winds: variable direction winds at 2 MPH (2 knots; 1.0 m/s)
Visibility: 1.55 miles (2.49 km)
Ceiling: 300 feet AGL
Clouds: broken clouds at 300 feet AGL
overcast cloud deck at 1000 feet AGL
Weather: DZ BR  (moderate drizzle, mist)
Text: TEMPO 1515/1601 1500 RA BKN002 OVC006
Forecast period: 1500 UTC 15 November 2018 to 0100 UTC 16 November 2018
Forecast type: TEMPORARY: The following changes expected for less than half the time period
Visibility: 0.93 miles (1.50 km)
Ceiling: 200 feet AGL
Clouds: broken clouds at 200 feet AGL
overcast cloud deck at 600 feet AGL
Weather: RA  (moderate rain)
Text: TEMPO 1601/1606 0800 FG VV002
Forecast period: 0100 to 0600 UTC 16 November 2018
Forecast type: TEMPORARY: The following changes expected for less than half the time period
Visibility: 0.50 miles (0.80 km)
Ceiling: indefinite ceiling with vertical visibility of 200 feet AGL
Clouds: obscured sky
Weather: FG  (fog)